Time;durP1;ratioP1;P1;durP2;ratioP2;P2;SDS_P1;SDS_P2;PMS_P1;PMS_P2;Temp;Humidity;BMP_temperature;BMP_pressure;BME280_temperature;BME280_humidity;BME280_pressure;Samples;Min_cycle;Max_cycle;Signal;HPM_P1;HPM_P2
2022/08/24 00:01:56;;;;;;;5.43;3.47;;;17.40;84.00;;;;;;5070811;28;21192;-56
2022/08/24 00:04:23;;;;;;;5.30;4.10;;;17.40;83.90;;;;;;5071997;28;20821;-55
2022/08/24 00:06:49;;;;;;;8.07;4.20;;;17.40;83.80;;;;;;5061595;28;20576;-55
2022/08/24 00:09:16;;;;;;;5.33;4.10;;;17.40;84.20;;;;;;5070205;28;20481;-55
2022/08/24 00:11:43;;;;;;;5.78;4.07;;;17.50;83.60;;;;;;5069648;28;21411;-55
2022/08/24 00:14:10;;;;;;;4.70;3.80;;;17.50;83.90;;;;;;5069264;28;20239;-55
2022/08/24 00:16:38;;;;;;;4.80;3.10;;;17.50;83.80;;;;;;5066948;28;20506;-55
2022/08/24 00:19:05;;;;;;;5.37;3.43;;;17.50;84.10;;;;;;5066760;28;20725;-55
2022/08/24 00:21:32;;;;;;;5.83;3.63;;;17.40;83.90;;;;;;5071418;28;20882;-55
2022/08/24 00:24:00;;;;;;;5.40;3.90;;;17.10;84.60;;;;;;5075769;28;20934;-55
2022/08/24 00:26:26;;;;;;;5.20;4.17;;;17.20;84.50;;;;;;5072576;28;20482;-55
2022/08/24 00:28:53;;;;;;;3.93;3.27;;;17.10;84.60;;;;;;5068740;28;20497;-55
2022/08/24 00:31:20;;;;;;;4.00;3.43;;;17.00;85.00;;;;;;5070034;28;20828;-56
2022/08/24 00:33:49;;;;;;;6.63;4.07;;;17.00;85.10;;;;;;5068842;28;20478;-55
2022/08/24 00:36:16;;;;;;;4.87;3.27;;;16.90;85.30;;;;;;5066645;28;20485;-55
2022/08/24 00:38:43;;;;;;;4.33;3.33;;;16.90;85.00;;;;;;5066364;28;20481;-55
2022/08/24 00:41:10;;;;;;;6.77;4.90;;;16.70;86.60;;;;;;5071260;28;20485;-55
2022/08/24 00:43:36;;;;;;;8.13;5.67;;;16.70;87.20;;;;;;5071902;28;20487;-55
2022/08/24 00:46:13;;;;;;;4.33;3.43;;;16.80;86.20;;;;;;5072705;28;20481;-55
2022/08/24 00:48:44;;;;;;;5.40;4.33;;;16.80;85.60;;;;;;5059622;28;21038;-55
2022/08/24 00:51:18;;;;;;;6.20;3.87;;;16.90;85.60;;;;;;5070086;28;20485;-55
2022/08/24 00:53:48;;;;;;;5.47;4.10;;;16.90;86.00;;;;;;5071774;28;21161;-55
2022/08/24 00:56:20;;;;;;;5.53;4.43;;;16.90;85.90;;;;;;5071709;28;20654;-55
2022/08/24 00:58:49;;;;;;;5.37;3.47;;;17.00;85.80;;;;;;5067717;28;20474;-55
2022/08/24 01:01:16;;;;;;;4.30;3.90;;;16.90;86.00;;;;;;5070309;28;20469;-54
2022/08/24 01:03:45;;;;;;;4.73;4.30;;;16.90;85.10;;;;;;5069570;28;20495;-54
2022/08/24 01:06:13;;;;;;;3.70;3.40;;;16.90;85.20;;;;;;5069254;27;20577;-54
2022/08/24 01:08:40;;;;;;;6.33;4.33;;;17.00;85.30;;;;;;5058390;28;20474;-55
2022/08/24 01:11:12;;;;;;;5.10;3.70;;;16.90;85.60;;;;;;5085181;28;20482;-55
2022/08/24 01:13:42;;;;;;;4.50;4.03;;;16.90;85.40;;;;;;5070583;28;20509;-55
2022/08/24 01:16:09;;;;;;;5.37;3.77;;;16.90;85.00;;;;;;5071272;28;20497;-56
2022/08/24 01:18:49;;;;;;;3.63;3.33;;;16.90;84.80;;;;;;5069751;28;20470;-54
2022/08/24 01:21:19;;;;;;;5.27;3.53;;;16.80;85.50;;;;;;5071780;28;20469;-54
2022/08/24 01:23:49;;;;;;;5.03;3.30;;;16.80;86.10;;;;;;5073108;28;20485;-55
2022/08/24 01:26:19;;;;;;;4.67;3.93;;;16.60;85.90;;;;;;5078423;28;20479;-55
2022/08/24 01:28:50;;;;;;;6.40;3.80;;;16.60;85.90;;;;;;5072310;28;21104;-55
2022/08/24 01:31:20;;;;;;;5.73;3.93;;;16.60;85.60;;;;;;5072214;28;20868;-55
2022/08/24 01:33:49;;;;;;;5.87;3.50;;;16.60;85.70;;;;;;5075373;28;20509;-55
2022/08/24 01:36:22;;;;;;;4.03;3.63;;;16.60;85.70;;;;;;5076640;28;20477;-55
2022/08/24 01:38:50;;;;;;;5.03;4.20;;;16.70;85.40;;;;;;5074886;28;20482;-55
2022/08/24 01:41:17;;;;;;;9.40;4.20;;;16.60;85.20;;;;;;5079695;28;20473;-55
2022/08/24 01:43:43;;;;;;;7.27;4.17;;;16.60;86.10;;;;;;5067845;28;20979;-55
2022/08/24 01:46:10;;;;;;;5.30;4.37;;;16.50;85.90;;;;;;5067769;28;20851;-55
2022/08/24 01:48:37;;;;;;;6.30;4.33;;;16.50;86.20;;;;;;5057775;28;20470;-55
2022/08/24 01:51:04;;;;;;;4.60;4.00;;;16.40;86.00;;;;;;5072093;28;20486;-55
2022/08/24 01:53:31;;;;;;;5.50;3.80;;;16.40;86.60;;;;;;5068889;28;20477;-54
2022/08/24 01:56:00;;;;;;;8.17;3.50;;;16.40;86.10;;;;;;5081453;28;20690;-54
2022/08/24 01:58:26;;;;;;;4.90;3.67;;;16.30;86.10;;;;;;5072430;28;20482;-54
2022/08/24 02:00:53;;;;;;;4.93;4.30;;;16.30;86.40;;;;;;5073442;28;20556;-55
2022/08/24 02:03:21;;;;;;;4.60;3.27;;;16.30;85.90;;;;;;5061027;28;20477;-55
2022/08/24 02:05:48;;;;;;;5.23;3.57;;;16.20;86.40;;;;;;5086738;28;20489;-55
2022/08/24 02:08:14;;;;;;;12.20;4.70;;;16.20;86.30;;;;;;5067274;28;20577;-55
2022/08/24 02:10:41;;;;;;;5.80;4.23;;;16.20;86.50;;;;;;5081980;28;20472;-56
2022/08/24 02:13:09;;;;;;;4.97;3.30;;;16.20;86.30;;;;;;5072363;28;20528;-55
2022/08/24 02:15:40;;;;;;;4.20;3.80;;;16.20;86.60;;;;;;5071998;28;20485;-55
2022/08/24 02:18:08;;;;;;;4.33;3.93;;;16.20;87.10;;;;;;5071884;28;20723;-55
2022/08/24 02:20:36;;;;;;;5.60;4.07;;;16.10;87.40;;;;;;5070503;28;20490;-55
2022/08/24 02:23:05;;;;;;;5.70;4.23;;;16.10;87.20;;;;;;5087663;27;20685;-55
2022/08/24 02:25:32;;;;;;;5.43;4.23;;;16.10;86.80;;;;;;5066164;28;20565;-54
2022/08/24 02:28:00;;;;;;;4.37;3.97;;;16.20;86.50;;;;;;5073916;28;20485;-54
2022/08/24 02:30:30;;;;;;;4.90;4.50;;;16.20;86.70;;;;;;5070285;28;20473;-54
2022/08/24 02:32:57;;;;;;;4.23;3.83;;;16.30;86.60;;;;;;5082405;27;20476;-54
2022/08/24 02:35:24;;;;;;;4.90;4.40;;;16.20;86.70;;;;;;5081117;27;20851;-54
2022/08/24 02:37:51;;;;;;;4.50;3.63;;;16.10;86.10;;;;;;5064527;28;20531;-54
2022/08/24 02:40:18;;;;;;;7.70;3.17;;;15.90;86.80;;;;;;5075671;28;20486;-54
2022/08/24 02:42:45;;;;;;;5.60;4.20;;;15.70;88.20;;;;;;5071442;28;20907;-55
2022/08/24 02:45:12;;;;;;;7.83;4.80;;;15.70;88.20;;;;;;5079191;28;21045;-55
2022/08/24 02:47:40;;;;;;;8.70;4.13;;;15.70;88.10;;;;;;5070794;28;20494;-55
2022/08/24 02:50:11;;;;;;;5.60;3.73;;;15.70;89.10;;;;;;5072545;28;20844;-55
2022/08/24 02:52:39;;;;;;;6.33;4.50;;;15.60;90.10;;;;;;5070736;28;20474;-55
2022/08/24 02:55:07;;;;;;;5.90;5.00;;;15.60;90.00;;;;;;5074387;27;20566;-55
2022/08/24 02:57:34;;;;;;;3.93;3.20;;;15.60;90.00;;;;;;5070341;28;20477;-55
2022/08/24 03:00:01;;;;;;;4.87;3.63;;;15.50;89.10;;;;;;5073923;28;20844;-55
2022/08/24 03:02:28;;;;;;;5.93;4.70;;;15.50;88.90;;;;;;5070898;28;20509;-55
2022/08/24 03:04:56;;;;;;;8.70;4.27;;;15.40;88.90;;;;;;5068752;28;20481;-54
2022/08/24 03:07:22;;;;;;;4.97;4.47;;;15.20;90.00;;;;;;5072503;28;20477;-54
2022/08/24 03:09:49;;;;;;;7.70;6.27;;;15.20;90.20;;;;;;5036077;28;20485;-54
2022/08/24 03:12:16;;;;;;;7.00;5.03;;;15.20;90.00;;;;;;5080312;28;20704;-54
2022/08/24 03:14:43;;;;;;;5.27;4.67;;;15.30;90.00;;;;;;5052066;27;20530;-54
2022/08/24 03:17:11;;;;;;;9.53;4.50;;;15.20;90.10;;;;;;5052925;27;21070;-54
2022/08/24 03:19:38;;;;;;;9.60;4.90;;;15.10;90.30;;;;;;5089591;27;21039;-53
2022/08/24 03:22:06;;;;;;;9.60;5.00;;;15.00;90.80;;;;;;5071891;28;20481;-54
2022/08/24 03:24:34;;;;;;;7.30;5.70;;;15.00;90.60;;;;;;5070304;28;20523;-53
2022/08/24 03:27:00;;;;;;;7.53;4.27;;;15.10;90.50;;;;;;5059456;28;20941;-54
2022/08/24 03:29:27;;;;;;;7.23;5.30;;;15.10;90.50;;;;;;5051293;27;21052;-53
2022/08/24 03:31:55;;;;;;;5.80;5.20;;;15.20;90.30;;;;;;5037086;27;20485;-54
2022/08/24 03:34:22;;;;;;;6.43;4.60;;;15.30;90.20;;;;;;5093094;27;20470;-54
2022/08/24 03:36:49;;;;;;;5.67;4.33;;;15.30;90.10;;;;;;5062483;28;20669;-54
2022/08/24 03:39:18;;;;;;;11.07;5.63;;;15.30;89.90;;;;;;5076970;28;20486;-54
2022/08/24 03:41:44;;;;;;;5.13;4.07;;;15.30;89.70;;;;;;5070687;28;20493;-54
2022/08/24 03:44:11;;;;;;;5.13;3.87;;;15.30;88.90;;;;;;5067119;28;20477;-54
2022/08/24 03:46:38;;;;;;;7.37;5.07;;;15.30;89.10;;;;;;5071032;28;20971;-54
2022/08/24 03:49:08;;;;;;;7.00;5.13;;;15.30;88.70;;;;;;5048755;28;20478;-54
2022/08/24 03:51:35;;;;;;;6.10;4.33;;;15.30;88.90;;;;;;5066444;28;20489;-54
2022/08/24 03:54:04;;;;;;;6.57;5.53;;;15.40;88.60;;;;;;5076872;28;20473;-54
2022/08/24 03:56:32;;;;;;;10.97;6.70;;;15.40;89.10;;;;;;5052582;28;20478;-54
2022/08/24 03:58:59;;;;;;;5.30;4.43;;;15.30;89.50;;;;;;5058593;28;20856;-54
2022/08/24 04:01:26;;;;;;;6.53;5.30;;;15.30;88.70;;;;;;5080438;28;20486;-54
2022/08/24 04:03:54;;;;;;;8.93;5.17;;;15.30;90.00;;;;;;5056738;28;20465;-54
2022/08/24 04:06:21;;;;;;;5.13;4.63;;;15.30;89.60;;;;;;5075976;27;20588;-54
2022/08/24 04:08:48;;;;;;;5.00;4.60;;;15.30;89.70;;;;;;5077715;28;20488;-54
2022/08/24 04:11:20;;;;;;;6.60;4.83;;;15.10;89.80;;;;;;5068657;27;20464;-54
2022/08/24 04:13:48;;;;;;;5.97;4.07;;;15.00;90.40;;;;;;5059301;28;20493;-53
2022/08/24 04:16:18;;;;;;;5.57;5.07;;;14.80;91.50;;;;;;5066125;28;20485;-53
2022/08/24 04:18:45;;;;;;;5.97;4.73;;;14.60;92.40;;;;;;5068278;28;20490;-54
2022/08/24 04:21:16;;;;;;;9.93;7.00;;;14.50;93.70;;;;;;5070375;28;20484;-54
2022/08/24 04:23:43;;;;;;;8.97;8.07;;;14.60;93.20;;;;;;5069769;28;20477;-53
2022/08/24 04:26:10;;;;;;;5.50;3.97;;;14.80;92.30;;;;;;5070766;28;20487;-53
2022/08/24 04:28:37;;;;;;;8.50;7.73;;;14.80;91.70;;;;;;5066092;28;20990;-53
2022/08/24 04:31:06;;;;;;;9.37;6.30;;;15.00;91.50;;;;;;5068326;28;20501;-53
2022/08/24 04:33:33;;;;;;;10.23;6.00;;;15.00;91.70;;;;;;5070050;28;20486;-53
2022/08/24 04:36:01;;;;;;;8.93;5.70;;;15.10;91.50;;;;;;5072678;28;20866;-53
2022/08/24 04:38:29;;;;;;;9.53;6.73;;;;;;;;;;5069456;28;20573;-53
2022/08/24 04:40:56;;;;;;;5.63;4.30;;;15.30;91.10;;;;;;5068617;28;21186;-54
2022/08/24 04:43:25;;;;;;;8.30;5.03;;;15.40;90.80;;;;;;5071120;28;20474;-54
2022/08/24 04:45:52;;;;;;;5.93;4.27;;;15.50;90.40;;;;;;5057622;28;20480;-54
2022/08/24 04:48:20;;;;;;;6.20;5.57;;;15.50;90.50;;;;;;5071298;28;20512;-54
2022/08/24 04:50:47;;;;;;;4.23;3.83;;;15.40;90.90;;;;;;5069456;28;20963;-54
2022/08/24 04:53:14;;;;;;;7.27;4.97;;;15.40;91.10;;;;;;5075653;28;20481;-54
2022/08/24 04:55:43;;;;;;;7.30;5.00;;;15.30;91.30;;;;;;5071163;28;20614;-54
2022/08/24 04:58:10;;;;;;;4.90;4.40;;;15.20;91.10;;;;;;5075154;27;21205;-54
2022/08/24 05:00:37;;;;;;;10.07;5.33;;;15.20;91.10;;;;;;5094248;27;20840;-53
2022/08/24 05:03:04;;;;;;;7.10;4.70;;;15.20;91.10;;;;;;5074829;28;20905;-53
2022/08/24 05:05:32;;;;;;;5.60;5.10;;;15.10;91.30;;;;;;5072882;28;21018;-53
2022/08/24 05:07:59;;;;;;;4.30;3.90;;;15.00;91.60;;;;;;5074826;28;20489;-53
2022/08/24 05:10:25;;;;;;;14.23;5.77;;;15.10;91.70;;;;;;5072162;28;20474;-53
2022/08/24 05:12:52;;;;;;;5.77;4.70;;;15.10;91.70;;;;;;5072000;28;20481;-53
2022/08/24 05:15:19;;;;;;;5.53;4.50;;;15.10;91.70;;;;;;5072495;28;20852;-53
2022/08/24 05:17:45;;;;;;;6.30;4.30;;;15.30;91.70;;;;;;5076288;28;20596;-54
2022/08/24 05:20:12;;;;;;;9.00;4.83;;;15.40;91.70;;;;;;5074379;28;20474;-53
2022/08/24 05:22:40;;;;;;;8.60;5.70;;;15.40;92.20;;;;;;5068797;28;21001;-54
2022/08/24 05:25:08;;;;;;;12.70;5.57;;;15.40;92.20;;;;;;5074827;28;20482;-54
2022/08/24 05:27:35;;;;;;;8.80;5.53;;;15.30;92.80;;;;;;5073177;28;20477;-54
2022/08/24 05:30:03;;;;;;;6.53;5.93;;;15.30;92.80;;;;;;5074153;28;21029;-54
2022/08/24 05:32:30;;;;;;;7.23;5.43;;;15.40;92.80;;;;;;5069780;28;20482;-54
2022/08/24 05:35:00;;;;;;;6.60;4.90;;;15.40;92.80;;;;;;5076088;28;21200;-54
2022/08/24 05:37:26;;;;;;;13.70;5.83;;;15.50;93.10;;;;;;5071082;28;20478;-54
2022/08/24 05:39:55;;;;;;;4.33;3.90;;;15.60;93.10;;;;;;5073987;28;20587;-53
2022/08/24 05:42:23;;;;;;;7.00;5.40;;;15.60;92.90;;;;;;5074667;28;20481;-54
2022/08/24 05:44:50;;;;;;;6.10;5.27;;;15.70;93.00;;;;;;5074693;28;20715;-53
2022/08/24 05:47:17;;;;;;;6.07;5.03;;;15.70;93.30;;;;;;5065897;28;20489;-54
2022/08/24 05:49:44;;;;;;;7.47;5.17;;;15.70;93.60;;;;;;5083313;28;20941;-54
2022/08/24 05:52:11;;;;;;;8.43;5.83;;;15.80;93.50;;;;;;5069669;28;21196;-54
2022/08/24 05:54:38;;;;;;;8.43;6.87;;;15.90;93.70;;;;;;5072266;28;20900;-53
2022/08/24 05:57:06;;;;;;;7.53;5.90;;;15.90;93.80;;;;;;5072915;28;20490;-53
2022/08/24 05:59:33;;;;;;;27.13;5.30;;;16.10;93.40;;;;;;5073273;28;20494;-53
2022/08/24 06:01:59;;;;;;;7.37;6.20;;;16.30;93.30;;;;;;5066191;28;20913;-53
2022/08/24 06:04:26;;;;;;;9.43;5.70;;;16.60;93.00;;;;;;5091398;27;21359;-53
2022/08/24 06:06:53;;;;;;;8.27;4.90;;;16.80;93.10;;;;;;5079333;27;21084;-53
2022/08/24 06:09:20;;;;;;;7.70;5.90;;;;;;;;;;5074182;28;20486;-53
2022/08/24 06:11:47;;;;;;;7.00;5.70;;;17.10;92.90;;;;;;5073454;28;21066;-53
2022/08/24 06:14:18;;;;;;;8.23;6.03;;;17.30;92.80;;;;;;5074604;28;20482;-53
2022/08/24 06:16:46;;;;;;;12.33;7.40;;;17.50;92.70;;;;;;5072402;28;20493;-53
2022/08/24 06:19:15;;;;;;;9.20;6.73;;;17.70;92.50;;;;;;5073316;28;20571;-53
2022/08/24 06:21:45;;;;;;;8.67;6.80;;;17.80;92.40;;;;;;5073981;28;20481;-53
2022/08/24 06:24:14;;;;;;;8.00;7.20;;;18.00;92.40;;;;;;5073935;28;20924;-53
2022/08/24 06:29:27;;;;;;;9.70;7.30;;;18.40;92.10;;;;;;5080433;28;20582;-53
2022/08/24 06:31:54;;;;;;;7.77;6.80;;;18.50;92.20;;;;;;5071103;28;20468;-53
2022/08/24 06:34:22;;;;;;;10.90;7.50;;;19.20;92.80;;;;;;5081225;28;20490;-53
2022/08/24 06:36:50;;;;;;;9.17;6.30;;;19.70;91.20;;;;;;5068915;28;20486;-53
2022/08/24 06:39:16;;;;;;;9.57;6.13;;;20.30;90.30;;;;;;5070456;28;20703;-52
2022/08/24 06:41:43;;;;;;;12.13;7.30;;;20.50;89.40;;;;;;5071730;28;21132;-53
2022/08/24 06:44:10;;;;;;;9.60;5.80;;;20.90;88.60;;;;;;5071674;28;20482;-53
2022/08/24 06:46:38;;;;;;;10.80;6.00;;;21.50;87.90;;;;;;5072484;28;20505;-53
2022/08/24 06:49:05;;;;;;;6.83;6.03;;;22.00;85.90;;;;;;5072292;28;20496;-53
2022/08/24 06:51:32;;;;;;;6.57;5.80;;;22.40;85.30;;;;;;5073626;28;20571;-53
2022/08/24 06:53:58;;;;;;;6.83;5.93;;;23.00;83.50;;;;;;5073066;28;20614;-53
2022/08/24 06:56:25;;;;;;;7.00;5.57;;;23.40;81.70;;;;;;5071303;28;20462;-53
2022/08/24 06:58:52;;;;;;;5.83;5.30;;;23.80;80.10;;;;;;5071498;28;20828;-53
2022/08/24 07:01:24;;;;;;;6.17;5.30;;;24.20;77.70;;;;;;5070914;28;20485;-53
2022/08/24 07:03:52;;;;;;;7.87;5.63;;;24.30;76.90;;;;;;5064962;28;20501;-53
2022/08/24 07:06:19;;;;;;;7.73;5.73;;;24.50;77.60;;;;;;5067980;27;20486;-53
2022/08/24 07:08:46;;;;;;;6.17;5.50;;;24.50;77.00;;;;;;5076765;27;20700;-53
2022/08/24 07:11:16;;;;;;;10.13;5.13;;;24.70;76.60;;;;;;5080115;27;20473;-53
2022/08/24 07:13:43;;;;;;;7.10;5.53;;;24.80;75.80;;;;;;5075832;27;20476;-53
2022/08/24 07:16:10;;;;;;;7.07;5.60;;;24.90;74.50;;;;;;5093487;27;20467;-53
2022/08/24 07:18:38;;;;;;;6.10;5.33;;;25.00;75.00;;;;;;5076999;27;20499;-53
2022/08/24 07:21:06;;;;;;;11.43;5.50;;;25.20;74.30;;;;;;5079781;27;21017;-53
2022/08/24 07:23:33;;;;;;;6.60;4.90;;;25.40;74.50;;;;;;5081971;27;20482;-53
2022/08/24 07:26:06;;;;;;;7.83;5.37;;;25.50;73.90;;;;;;5081680;27;20831;-53
2022/08/24 07:28:35;;;;;;;10.33;5.77;;;25.60;73.70;;;;;;5081229;27;20659;-53
2022/08/24 07:31:02;;;;;;;6.80;5.23;;;25.70;72.40;;;;;;5095966;27;20578;-53
2022/08/24 07:33:29;;;;;;;7.27;5.40;;;25.80;72.80;;;;;;5080213;27;20626;-53
2022/08/24 07:35:56;;;;;;;6.13;5.40;;;25.80;71.10;;;;;;5080842;27;20480;-53
2022/08/24 07:38:25;;;;;;;7.30;5.20;;;25.90;71.50;;;;;;5080918;27;20500;-53
2022/08/24 07:40:52;;;;;;;8.60;5.05;;;26.00;71.00;;;;;;5080868;27;20478;-53
2022/08/24 07:43:19;;;;;;;7.20;5.50;;;26.20;70.50;;;;;;5083456;27;20265;-53
2022/08/24 07:45:48;;;;;;;5.57;4.80;;;26.20;71.20;;;;;;5078751;27;20836;-53
2022/08/24 07:48:14;;;;;;;5.53;4.80;;;26.40;71.90;;;;;;5078173;27;21178;-53
2022/08/24 07:50:41;;;;;;;5.77;5.23;;;26.80;71.00;;;;;;5078790;27;20477;-53
2022/08/24 07:53:08;;;;;;;5.65;4.57;;;27.20;69.70;;;;;;5083809;27;20482;-53
2022/08/24 07:55:36;;;;;;;7.17;5.60;;;27.40;69.20;;;;;;5076927;27;20590;-53
2022/08/24 07:58:03;;;;;;;8.17;5.33;;;27.70;68.20;;;;;;5076310;27;20472;-53
2022/08/24 08:00:30;;;;;;;4.77;4.37;;;27.90;68.30;;;;;;5082134;27;21423;-53
2022/08/24 08:02:57;;;;;;;5.43;4.93;;;28.00;68.00;;;;;;5082412;27;20489;-53
2022/08/24 08:05:24;;;;;;;4.40;4.00;;;28.50;66.60;;;;;;5076977;27;20497;-54
2022/08/24 08:07:51;;;;;;;6.07;4.77;;;28.50;67.40;;;;;;5069548;27;20492;-53
2022/08/24 08:10:19;;;;;;;7.57;5.50;;;28.80;65.80;;;;;;5072499;27;20531;-52
2022/08/24 08:12:47;;;;;;;10.73;4.37;;;29.00;65.00;;;;;;5074368;27;20503;-54
2022/08/24 08:15:14;;;;;;;6.80;4.60;;;29.20;64.30;;;;;;5078982;27;20481;-54
2022/08/24 08:17:40;;;;;;;4.53;4.17;;;29.50;64.00;;;;;;5077258;27;20477;-53
2022/08/24 08:20:09;;;;;;;7.17;4.30;;;29.70;63.70;;;;;;5081178;27;20477;-53
2022/08/24 08:25:20;;;;;;;4.27;3.97;;;30.40;62.40;;;;;;5102752;27;20566;-53
2022/08/24 08:27:49;;;;;;;4.73;4.33;;;30.60;62.20;;;;;;5074189;27;21006;-53
2022/08/24 08:30:16;;;;;;;5.20;4.60;;;30.80;61.00;;;;;;5076409;27;20498;-53
2022/08/24 08:32:42;;;;;;;4.70;4.07;;;31.00;60.10;;;;;;5108673;27;20966;-53
2022/08/24 08:35:10;;;;;;;6.00;3.80;;;31.00;60.70;;;;;;5085077;27;20525;-53
2022/08/24 08:37:37;;;;;;;5.80;3.70;;;31.30;59.10;;;;;;5066264;27;20482;-53
2022/08/24 08:40:10;;;;;;;8.83;3.87;;;31.50;58.50;;;;;;5102409;27;20473;-53
2022/08/24 08:42:56;;;;;;;4.60;4.20;;;31.50;58.70;;;;;;5084246;27;20578;-53
2022/08/24 08:45:32;;;;;;;4.47;4.07;;;31.60;59.40;;;;;;5076942;27;20476;-53
2022/08/24 08:48:33;;;;;;;4.60;4.03;;;31.90;56.50;;;;;;5078548;27;20484;-53
2022/08/24 08:51:32;;;;;;;4.40;4.00;;;32.10;56.40;;;;;;5084653;27;20469;-53
2022/08/24 08:54:17;;;;;;;4.40;3.90;;;32.10;57.40;;;;;;5087667;27;20472;-53
2022/08/24 08:56:52;;;;;;;4.40;4.00;;;32.40;56.10;;;;;;5067699;28;20934;-53
2022/08/24 08:59:32;;;;;;;3.60;3.30;;;32.40;55.80;;;;;;5084402;27;20473;-54
2022/08/24 09:02:13;;;;;;;5.80;4.60;;;32.20;53.30;;;;;;5085390;27;20484;-53
2022/08/24 09:05:15;;;;;;;3.90;3.37;;;32.10;55.50;;;;;;5085389;27;20481;-53
2022/08/24 09:07:51;;;;;;;4.00;3.53;;;32.20;54.90;;;;;;5078784;27;21074;-53
2022/08/24 09:10:39;;;;;;;3.87;3.40;;;32.30;55.80;;;;;;5082174;27;20914;-54
2022/08/24 09:13:20;;;;;;;6.07;3.80;;;32.80;54.30;;;;;;5084171;27;20465;-53
2022/08/24 09:16:16;;;;;;;4.50;3.40;;;33.00;53.80;;;;;;5072154;28;20580;-53
2022/08/24 09:18:57;;;;;;;4.07;3.33;;;32.90;51.20;;;;;;5069307;27;20560;-53
2022/08/24 09:21:45;;;;;;;4.93;3.50;;;32.90;53.70;;;;;;5077701;27;20827;-53
2022/08/24 09:24:27;;;;;;;4.43;3.50;;;33.10;54.10;;;;;;5104520;27;21404;-53
2022/08/24 09:27:06;;;;;;;4.17;3.53;;;33.20;53.90;;;;;;5067855;27;21074;-53
2022/08/24 09:29:47;;;;;;;9.40;3.80;;;33.60;52.70;;;;;;5078041;28;20474;-53
2022/08/24 09:32:33;;;;;;;4.80;3.40;;;33.60;52.80;;;;;;5082245;28;20473;-53
2022/08/24 09:35:02;;;;;;;4.10;3.77;;;33.80;53.10;;;;;;5080204;27;20773;-53
2022/08/24 09:37:33;;;;;;;4.13;3.70;;;33.90;52.80;;;;;;5069856;27;20884;-52
2022/08/24 09:40:13;;;;;;;3.63;3.33;;;34.00;51.30;;;;;;5065570;28;20463;-53
2022/08/24 09:43:09;;;;;;;3.70;3.40;;;33.90;51.40;;;;;;5054172;28;20840;-53
2022/08/24 09:46:25;;;;;;;4.60;3.47;;;33.70;50.70;;;;;;5057292;28;20463;-53
2022/08/24 09:49:22;;;;;;;5.00;3.50;;;33.90;51.40;;;;;;5057803;28;20808;-53
2022/08/24 09:52:25;;;;;;;3.53;3.00;;;34.10;51.40;;;;;;5053938;28;20477;-53
2022/08/24 09:55:19;;;;;;;3.67;3.37;;;34.40;50.00;;;;;;5053876;28;20466;-54
2022/08/24 09:58:03;;;;;;;10.00;3.30;;;34.60;50.50;;;;;;5053270;28;20569;-53
2022/08/24 10:00:46;;;;;;;3.60;3.23;;;34.60;50.40;;;;;;5062790;27;20455;-53
2022/08/24 10:03:27;;;;;;;3.20;2.90;;;34.70;49.00;;;;;;5060333;28;20826;-53
2022/08/24 10:06:17;;;;;;;4.90;3.37;;;34.80;48.10;;;;;;5058326;28;21026;-53
2022/08/24 10:09:01;;;;;;;3.00;2.60;;;34.80;48.50;;;;;;5051174;28;20554;-53
2022/08/24 10:11:37;;;;;;;5.13;2.70;;;34.80;46.80;;;;;;5051934;28;20470;-53
2022/08/24 10:14:39;;;;;;;3.30;3.00;;;34.80;47.60;;;;;;5062315;28;21005;-53
2022/08/24 10:17:15;;;;;;;2.80;2.60;;;34.80;47.40;;;;;;5061142;27;20853;-53
2022/08/24 10:19:57;;;;;;;3.13;2.77;;;34.90;45.10;;;;;;5057591;28;20478;-53
2022/08/24 10:22:48;;;;;;;4.70;2.80;;;34.90;47.20;;;;;;5050504;28;20472;-56
2022/08/24 10:25:29;;;;;;;5.90;3.27;;;35.10;47.80;;;;;;5066316;28;20561;-52
2022/08/24 10:28:06;;;;;;;3.13;2.80;;;35.10;48.20;;;;;;5060471;28;20469;-53
2022/08/24 10:30:47;;;;;;;3.53;2.80;;;35.20;47.30;;;;;;5080461;27;20484;-52
2022/08/24 10:33:20;;;;;;;3.53;2.37;;;34.90;44.00;;;;;;5082538;27;20536;-53
2022/08/24 10:36:07;;;;;;;5.33;3.10;;;34.80;45.90;;;;;;5081957;27;20481;-52
2022/08/24 10:42:08;;;;;;;3.27;2.97;;;34.90;45.70;;;;;;5080267;27;20855;-53
2022/08/24 10:44:47;;;;;;;3.30;3.00;;;35.00;45.20;;;;;;5071921;27;20459;-52
2022/08/24 10:47:20;;;;;;;4.83;4.07;;;34.70;43.70;;;;;;5071939;27;20475;-53
2022/08/24 10:50:19;;;;;;;3.53;3.23;;;35.00;46.10;;;;;;5060954;27;20994;-52
2022/08/24 10:53:05;;;;;;;7.17;4.47;;;34.70;44.50;;;;;;5061980;28;21490;-52
2022/08/24 10:55:35;;;;;;;10.93;3.30;;;34.40;44.30;;;;;;5063586;28;20751;-53
2022/08/24 10:58:42;;;;;;;5.27;3.63;;;34.20;44.20;;;;;;5054427;28;20836;-51
2022/08/24 11:01:19;;;;;;;5.63;3.30;;;34.10;45.70;;;;;;5066275;28;20448;-53
2022/08/24 11:03:56;;;;;;;11.03;2.63;;;34.30;45.80;;;;;;5067091;28;20473;-53
2022/08/24 11:06:25;;;;;;;4.30;2.80;;;34.20;45.10;;;;;;5063510;28;20455;-53
2022/08/24 11:08:57;;;;;;;3.73;3.30;;;34.00;44.20;;;;;;5064323;28;20448;-53
2022/08/24 11:11:32;;;;;;;5.23;3.40;;;34.10;44.90;;;;;;5083362;27;20450;-54
2022/08/24 11:14:02;;;;;;;3.30;3.00;;;34.20;45.70;;;;;;5082243;27;20555;-53
2022/08/24 11:16:32;;;;;;;3.53;3.23;;;33.70;43.20;;;;;;5081649;27;20825;-52
2022/08/24 11:19:01;;;;;;;5.83;3.57;;;34.20;46.60;;;;;;5074192;27;20472;-54
2022/08/24 11:21:44;;;;;;;3.50;3.20;;;34.30;45.80;;;;;;5079088;27;20871;-53
2022/08/24 11:24:34;;;;;;;4.60;3.20;;;34.80;45.40;;;;;;5080206;27;20689;-52
2022/08/24 11:27:07;;;;;;;6.00;3.13;;;35.10;45.00;;;;;;5067463;27;20447;-52
2022/08/24 11:29:57;;;;;;;3.80;3.23;;;35.10;45.80;;;;;;5080258;27;21240;-52
2022/08/24 11:32:29;;;;;;;4.80;3.40;;;35.20;44.70;;;;;;5081163;27;20982;-57
2022/08/24 11:35:01;;;;;;;3.40;3.10;;;35.40;45.80;;;;;;5078967;27;20469;-53
2022/08/24 11:37:33;;;;;;;6.40;3.37;;;35.40;43.80;;;;;;5070631;28;20866;-52
2022/08/24 11:40:00;;;;;;;3.83;3.30;;;35.40;43.80;;;;;;5071539;27;20527;-54
2022/08/24 11:42:41;;;;;;;3.60;3.00;;;35.40;44.10;;;;;;5113846;27;20560;-53
2022/08/24 11:45:15;;;;;;;3.00;2.60;;;35.50;43.70;;;;;;5082942;27;20447;-52
2022/08/24 11:47:53;;;;;;;3.93;3.53;;;35.50;43.20;;;;;;5075613;27;20473;-53
2022/08/24 11:50:28;;;;;;;4.47;2.90;;;35.60;43.90;;;;;;5081342;27;20644;-52
2022/08/24 11:53:05;;;;;;;3.97;2.83;;;35.60;43.50;;;;;;5080571;27;20868;-52
2022/08/24 11:55:36;;;;;;;3.10;2.90;;;35.60;44.00;;;;;;5066706;27;20440;-57
2022/08/24 11:58:12;;;;;;;3.40;2.93;;;36.00;44.20;;;;;;5075739;27;20562;-53
2022/08/24 12:00:45;;;;;;;3.70;3.40;;;36.10;44.00;;;;;;5081072;27;20482;-54
2022/08/24 12:03:34;;;;;;;3.43;2.73;;;36.00;43.60;;;;;;5080755;27;20450;-53
2022/08/24 12:06:11;;;;;;;4.40;3.87;;;36.00;44.20;;;;;;5068746;28;20452;-52
2022/08/24 12:08:43;;;;;;;3.77;3.47;;;35.80;43.20;;;;;;5062801;27;20443;-52
2022/08/24 12:11:17;;;;;;;3.13;2.77;;;35.90;43.80;;;;;;5081275;27;21020;-52
2022/08/24 12:13:51;;;;;;;3.60;3.30;;;35.80;44.10;;;;;;5079478;27;20576;-52
2022/08/24 12:16:28;;;;;;;3.40;2.90;;;35.80;44.20;;;;;;5081288;27;20480;-52
2022/08/24 12:19:00;;;;;;;3.77;3.47;;;35.90;43.80;;;;;;5074975;27;20891;-52
2022/08/24 12:21:30;;;;;;;3.30;3.00;;;36.10;44.00;;;;;;5095598;27;20453;-52
2022/08/24 12:24:02;;;;;;;3.27;2.97;;;36.30;43.70;;;;;;5080361;27;20450;-52
2022/08/24 12:26:32;;;;;;;3.50;3.20;;;36.30;43.10;;;;;;5080977;27;20548;-52
2022/08/24 12:29:06;;;;;;;4.30;3.70;;;36.30;43.50;;;;;;5077168;27;20451;-52
2022/08/24 12:31:39;;;;;;;4.63;3.10;;;35.90;43.30;;;;;;5079127;27;21089;-53
2022/08/24 12:34:10;;;;;;;4.80;3.40;;;35.90;43.20;;;;;;5079766;27;20671;-54
2022/08/24 12:36:46;;;;;;;4.40;3.13;;;36.00;43.30;;;;;;5076771;27;20460;-52
2022/08/24 12:39:18;;;;;;;3.07;2.50;;;36.20;42.60;;;;;;5077925;27;20467;-53
2022/08/24 12:41:54;;;;;;;2.80;2.60;;;36.00;42.20;;;;;;5077065;27;21037;-53
2022/08/24 12:44:30;;;;;;;5.43;2.90;;;35.40;41.10;;;;;;5095933;27;20455;-52
2022/08/24 12:46:57;;;;;;;3.40;3.07;;;35.50;43.10;;;;;;5074695;27;20481;-52
2022/08/24 12:49:29;;;;;;;7.57;3.30;;;35.50;42.90;;;;;;5076976;27;20484;-53
2022/08/24 12:52:12;;;;;;;3.43;3.13;;;35.90;43.60;;;;;;5079803;27;20456;-54
2022/08/24 12:54:55;;;;;;;5.80;3.40;;;36.20;42.90;;;;;;5081843;27;20460;-53
2022/08/24 12:57:34;;;;;;;3.10;2.80;;;36.20;41.10;;;;;;5074394;27;20452;-53
2022/08/24 13:00:08;;;;;;;3.30;3.00;;;35.80;41.40;;;;;;5079095;27;20921;-52
2022/08/24 13:02:39;;;;;;;3.40;3.10;;;35.70;41.40;;;;;;5073565;27;20463;-52
2022/08/24 13:05:13;;;;;;;4.43;3.23;;;35.70;43.10;;;;;;5044467;28;20934;-54
2022/08/24 13:07:43;;;;;;;9.10;3.77;;;35.70;42.60;;;;;;5052340;28;20481;-52
2022/08/24 13:10:15;;;;;;;5.27;2.60;;;36.00;42.60;;;;;;5058327;28;20479;-52
2022/08/24 13:13:11;;;;;;;2.97;2.77;;;36.20;42.60;;;;;;5056456;28;20978;-49
2022/08/24 13:16:02;;;;;;;3.47;2.90;;;35.90;41.10;;;;;;5056172;28;20455;-52
2022/08/24 13:19:05;;;;;;;3.37;2.90;;;35.90;43.00;;;;;;5053208;28;20478;-53
2022/08/24 13:21:50;;;;;;;9.13;2.90;;;36.30;42.90;;;;;;5078735;27;20925;-52